world map with PIL marked

PIL - Airport

This information may not be accurate or current and is not valid for navigation or flight planning. No warranty of fitness for any purpose is made or implied.

flag of Ñeembucúflag of Paraguay

Donate via PayPal

Additional information is available on the NEW Great Circle Mapper

Location
City:  Pilar, Ñeembucú, Paraguay
Name:Carlos Miguel Jiménez Airport
ICAO / IATA:SGPI / PIL

Details
Type:Airport (Aerodrome, Airfield)
Latitude:26°52'53"S (-26.881466)
Longitude:58°19'05"W (-58.318035)
Datum:WGS 1984
Elevation:249 ft (76 m)
Runways:1
Longest:4920 × 62 ft (1500 × 19 m)

Time
Timezone:UTC+30:08 (DST+33:08)
Local Time:

Weather
METAR:SGPI  041200Z 14009KT CAVOK 22/18 Q1017

Related Locations
Nearby:
Farthest:WNZ: 12347 mi / 19870 km
Wenzhou [Intl], ZJ, CN

Find:

   beyond  
but within

Other Information
Maps:
Sources:

  


 


Great Circle Mapper   Great Circle Mapper
Great Circle Mapper FAQ   Great Circle Mapper FAQ
  Karl's Home Page
KLS²   KLS² Home
   GC on Facebook
Airlines of the World   Airlines of the World
Donate via PayPal


Copyright © 2004-2024, Karl L. Swartz. All rights reserved.
All trademarks mentioned herein belong to their respective owners.

Please see credits for attribution and copyright information.

Karl Swartz <karl@kls2.com>
  Powered by FreeBSD
Valid HTML 4.01!
Labeled with ICRA
hCard Microformat
Geo Microformat